• Join FlightAware (Why Join?)
  • Login
  • US Flag 
01:53AM EDT


 

Airport Tracker/Info


-or-


 

Live Flight TrackerFlight Track Log ✈ JZA8816 ✈ 23-Apr-2013 ✈ CYHZ - CYQY

Flight Track Log - Related Links

Times and Time Zones

All times are in EDT time to prevent confusion due to time zone crossing. See the JZA8816 flight status page for this flight to view local times or setup timezone preferences in your user account.

Time Position Orientation Groundspeed Altitude Reporting Facility
EDT Latitude Longitude Course Direction KTS MPH feet Rate Location/Type
10:18PM 44.8667 -63.5000 90° East 10 12 500  Level Moncton Center
10:19PM 44.8667 -63.4833 90° East 90 104 800 960 Climbing Moncton Center
10:20PM 44.8500 -63.4500 125° Southeast 100 115 2,500 1,380 Climbing Moncton Center
10:21PM 44.8667 -63.4000 65° Northeast 140 161 3,600 1,200 Climbing Moncton Center
10:22PM 44.8833 -63.3667 55° Northeast 160 184 5,000 1,200 Climbing Moncton Center
10:23PM 44.9000 -63.2833 74° East 180 207 6,100 1,140 Climbing Moncton Center
10:24PM 44.9333 -63.2333 47° Northeast 180 207 7,300 1,200 Climbing Moncton Center
10:25PM 44.9667 -63.1667 55° Northeast 200 230 8,600 1,260 Climbing Moncton Center
10:26PM 44.9833 -63.1000 71° East 200 230 9,900 1,200 Climbing Moncton Center
10:27PM 45.0167 -63.0167 60° Northeast 210 242 11,100 1,140 Climbing Moncton Center
10:28PM 45.0500 -62.9500 55° Northeast 210 242 12,200 900 Climbing Moncton Center
10:29PM 45.0833 -62.8833 55° Northeast 220 253 12,900 360 Climbing Moncton Center
10:30PM 45.1167 -62.7833 65° Northeast 240 276 13,000  Climbing Moncton Center
10:31PM 45.1500 -62.6833 65° Northeast 270 311 13,000  Level Moncton Center
10:33PM 45.2167 -62.5000 63° Northeast 290 334 13,000  Level Moncton Center
10:34PM 45.2500 -62.4000 65° Northeast 290 334 13,000  Level Moncton Center
10:35PM 45.3000 -62.3000 55° Northeast 290 334 13,000  Level Moncton Center
10:36PM 45.3333 -62.2000 65° Northeast 290 334 13,000  Level Moncton Center
10:37PM 45.3667 -62.1167 60° Northeast 290 334 13,000  Level Moncton Center
10:38PM 45.4167 -61.9833 62° Northeast 290 334 13,000  Level Moncton Center
10:39PM 45.4500 -61.9000 60° Northeast 290 334 13,000  Level Moncton Center
10:40PM 45.5000 -61.8000 54° Northeast 290 334 13,000  Level Moncton Center
10:41PM 45.5333 -61.7000 65° Northeast 290 334 13,000  Level Moncton Center
10:42PM 45.5667 -61.6000 65° Northeast 290 334 13,000  Level Moncton Center
10:43PM 45.6000 -61.5000 64° Northeast 290 334 13,000 60 Level Moncton Center
10:44PM 45.6333 -61.4000 64° Northeast 290 334 13,200  Climbing Moncton Center
10:45PM 45.6833 -61.2833 58° Northeast 290 334 13,100 -120 Descending Moncton Center
10:46PM 45.7167 -61.1833 64° Northeast 300 345 13,000 -300 Descending Moncton Center
10:47PM 45.7667 -61.0833 54° Northeast 300 345 12,600 -840 Descending Moncton Center
10:48PM 45.8000 -60.9667 68° East 320 368 11,400 -1,140 Descending Moncton Center
10:49PM 45.8333 -60.8667 64° Northeast 310 357 10,400 -1,140 Descending Moncton Center
10:50PM 45.8833 -60.7667 54° Northeast 280 322 9,200 -1,140 Descending Moncton Center
10:51PM 45.9000 -60.6667 76° East 270 311 8,200 -1,080 Descending Moncton Center
10:52PM 45.9333 -60.5500 68° East 260 299 7,100 -1,020 Descending Moncton Center
10:53PM 45.9500 -60.4667 74° East 260 299 6,200 -1,020 Descending Moncton Center
10:54PM 45.9833 -60.3667 64° Northeast 250 288 5,100 -960 Descending Moncton Center
10:55PM 46.0000 -60.3000 70° East 220 253 4,300 -840 Descending Moncton Center
10:56PM 46.0167 -60.2333 70° East 210 242 3,500 -900 Descending Moncton Center
10:57PM 46.0667 -60.1500 49° Northeast 200 230 2,500 -1,020 Descending Moncton Center